Time;durP1;ratioP1;P1;durP2;ratioP2;P2;SDS_P1;SDS_P2;PMS_P1;PMS_P2;Temp;Humidity;BMP_temperature;BMP_pressure;BME280_temperature;BME280_humidity;BME280_pressure;Samples;Min_cycle;Max_cycle;Signal;HPM_P1;HPM_P2
2023/05/11 00:01:30;;;;;;;;;;;332.80;2329.60;;;;;;5016365;28;19913;-73
2023/05/11 00:03:56;;;;;;;;;;;308.00;2304.00;;;;;;5028872;28;19905;-81
2023/05/11 00:06:22;;;;;;;;;;;332.90;2329.60;;;;;;5029934;28;19913;-73
2023/05/11 00:08:47;;;;;;;;;;;332.90;2329.60;;;;;;5027152;28;19905;-73
2023/05/11 00:11:13;;;;;;;;;;;332.80;2329.60;;;;;;5016002;28;19909;-73
2023/05/11 00:13:39;;;;;;;;;;;332.90;2329.60;;;;;;5016215;28;19920;-80
2023/05/11 00:16:04;;;;;;;;;;;332.90;2329.60;;;;;;5017325;28;19944;-74
2023/05/11 00:18:30;;;;;;;;;;;333.00;2329.60;;;;;;5027340;28;20376;-73
2023/05/11 00:20:56;;;;;;;;;;;333.00;2329.60;;;;;;5015658;28;19905;-80
2023/05/11 00:23:22;;;;;;;;;;;332.90;2329.60;;;;;;5015684;28;19964;-73
2023/05/11 00:25:47;;;;;;;;;;;332.90;2329.60;;;;;;5015592;28;19917;-74
2023/05/11 00:28:13;;;;;;;;;;;332.90;2329.60;;;;;;5016409;28;19916;-73
2023/05/11 00:30:39;;;;;;;;;;;332.90;2329.60;;;;;;5022316;28;20345;-74
2023/05/11 00:33:04;;;;;;;;;;;332.90;2329.60;;;;;;5022005;28;19909;-74
2023/05/11 00:35:31;;;;;;;;;;;332.80;2329.60;;;;;;5016298;28;19984;-74
2023/05/11 00:37:57;;;;;;;;;;;332.80;2329.60;;;;;;5015802;28;19905;-79
2023/05/11 00:40:23;;;;;;;;;;;308.00;2304.00;;;;;;5015367;28;19917;-74
2023/05/11 00:42:48;;;;;;;;;;;332.80;2329.60;;;;;;5021269;28;19906;-81
2023/05/11 00:45:14;;;;;;;;;;;308.10;2304.00;;;;;;5022650;28;20265;-74
2023/05/11 00:47:39;;;;;;;;;;;332.80;2329.60;;;;;;5014951;28;19905;-81
2023/05/11 00:50:06;;;;;;;;;;;308.10;2304.00;;;;;;5015113;28;20256;-80
2023/05/11 00:52:31;;;;;;;;;;;308.10;2304.00;;;;;;5015230;28;19956;-73
2023/05/11 00:54:57;;;;;;;;;;;308.10;2304.00;;;;;;5014938;28;20286;-80
2023/05/11 00:57:22;;;;;;;;;;;308.10;2304.00;;;;;;5015095;28;19910;-73
2023/05/11 00:59:48;;;;;;;;;;;332.80;2329.60;;;;;;5015098;28;20358;-75
2023/05/11 01:02:14;;;;;;;;;;;308.10;2304.00;;;;;;5014942;28;19905;-73
2023/05/11 01:04:39;;;;;;;;;;;308.10;2304.00;;;;;;5014792;28;19905;-79
2023/05/11 01:07:23;;;;;;;;;;;308.10;2304.00;;;;;;5014823;28;19932;-74
2023/05/11 01:09:52;;;;;;;;;;;308.10;2304.00;;;;;;5019078;28;19999;-81
2023/05/11 01:12:22;;;;;;;;;;;332.80;2329.60;;;;;;5023409;28;20274;-78
2023/05/11 01:14:47;;;;;;;;;;;308.10;2304.00;;;;;;5014773;28;20345;-74
2023/05/11 01:17:31;;;;;;;;;;;332.80;2329.60;;;;;;5014881;28;19917;-76
2023/05/11 01:20:01;;;;;;;;;;;332.80;2329.60;;;;;;5014955;28;19906;-81
2023/05/11 01:22:27;;;;;;;;;;;332.80;2329.60;;;;;;5015534;28;19924;-73
2023/05/11 01:25:03;;;;;;;;;;;332.80;2329.60;;;;;;5014899;28;19918;-73
2023/05/11 01:27:38;;;;;;;;;;;332.80;2329.60;;;;;;5014694;28;19912;-74
2023/05/11 01:30:19;;;;;;;;;;;332.80;2329.60;;;;;;5014846;28;20289;-74
2023/05/11 01:32:45;;;;;;;;;;;332.90;2329.60;;;;;;5014910;28;19905;-81
2023/05/11 01:35:13;;;;;;;;;;;332.90;2329.60;;;;;;5014570;28;19911;-73
2023/05/11 01:37:40;;;;;;;;;;;332.90;2329.60;;;;;;5014511;28;19905;-78
2023/05/11 01:40:11;;;;;;;;;;;333.00;2329.60;;;;;;5014565;28;19913;-73
2023/05/11 01:43:03;;;;;;;;;;;333.00;2329.60;;;;;;5018413;28;19906;-73
2023/05/11 01:45:31;;;;;;;;;;;332.90;2329.60;;;;;;5021422;28;19915;-79
2023/05/11 01:47:57;;;;;;;;;;;332.90;2329.60;;;;;;5025762;28;19913;-73
2023/05/11 01:50:24;;;;;;;;;;;332.90;2329.60;;;;;;5014134;28;19909;-74
2023/05/11 01:52:50;;;;;;;;;;;332.90;2329.60;;;;;;5014245;28;19916;-74
2023/05/11 01:55:16;;;;;;;;;;;333.00;2329.60;;;;;;5014032;28;19917;-73
2023/05/11 01:57:42;;;;;;;;;;;333.00;2329.60;;;;;;5014473;28;19905;-80
2023/05/11 02:00:08;;;;;;;;;;;333.10;2329.60;;;;;;5013523;28;20388;-74
2023/05/11 02:02:34;;;;;;;;;;;333.10;2329.60;;;;;;5024261;28;19912;-74
2023/05/11 02:05:00;;;;;;;;;;;333.20;2329.60;;;;;;5016631;28;19913;-74
2023/05/11 02:07:27;;;;;;;;;;;333.20;2329.60;;;;;;5014050;28;19909;-74
2023/05/11 02:09:53;;;;;;;;;;;333.20;2329.60;;;;;;5013903;28;19952;-73
2023/05/11 02:12:19;;;;;;;;;;;333.20;2329.60;;;;;;5014206;28;20664;-74
2023/05/11 02:14:46;;;;;;;;;;;333.10;2329.60;;;;;;5013762;28;19912;-74
2023/05/11 02:17:12;;;;;;;;;;;333.10;2329.60;;;;;;5013895;28;19955;-74
2023/05/11 02:19:38;;;;;;;;;;;333.10;2329.60;;;;;;5013684;28;20012;-73
2023/05/11 02:22:04;;;;;;;;;;;333.10;2329.60;;;;;;5013755;28;21052;-73
2023/05/11 02:24:31;;;;;;;;;;;333.10;2329.60;;;;;;5014314;28;19917;-75
2023/05/11 02:26:57;;;;;;;;;;;333.00;2329.60;;;;;;5025555;28;20369;-74
2023/05/11 02:29:24;;;;;;;;;;;333.10;2329.60;;;;;;5013781;28;19909;-75
2023/05/11 02:31:54;;;;;;;;;;;333.20;2329.60;;;;;;5013920;28;19912;-73
2023/05/11 02:34:25;;;;;;;;;;;333.20;2329.60;;;;;;5014243;28;19944;-74
2023/05/11 02:37:11;;;;;;;;;;;333.20;2329.60;;;;;;5014131;28;19929;-74
2023/05/11 02:39:37;;;;;;;;;;;333.20;2329.60;;;;;;5026288;28;19912;-74
2023/05/11 02:42:22;;;;;;;;;;;333.60;2329.60;;;;;;5014325;28;19909;-77
2023/05/11 02:44:52;;;;;;;;;;;333.40;2329.60;;;;;;5013639;28;19906;-74
2023/05/11 02:47:18;;;;;;;;;;;333.40;2329.60;;;;;;5013577;28;20358;-73
2023/05/11 02:49:48;;;;;;;;;;;333.40;2329.60;;;;;;5013491;28;20405;-73
2023/05/11 02:52:14;;;;;;;;;;;333.40;2329.60;;;;;;5013443;28;19920;-74
2023/05/11 02:54:41;;;;;;;;;;;333.40;2329.60;;;;;;5013444;28;20365;-81
2023/05/11 02:57:06;;;;;;;;;;;333.40;2329.60;;;;;;5013455;28;19906;-74
2023/05/11 02:59:32;;;;;;;;;;;333.40;2329.60;;;;;;5013726;28;19906;-73
2023/05/11 03:01:58;;;;;;;;;;;333.50;2329.60;;;;;;5013684;28;19928;-77
2023/05/11 03:04:24;;;;;;;;;;;333.50;2329.60;;;;;;5013825;28;19916;-79
2023/05/11 03:06:50;;;;;;;;;;;333.60;2329.60;;;;;;5013496;28;19913;-79
2023/05/11 03:09:15;;;;;;;;;;;333.50;2329.60;;;;;;5013635;28;19905;-74
2023/05/11 03:11:41;;;;;;;;;;;333.60;2329.60;;;;;;5032897;28;20325;-74
2023/05/11 03:14:08;;;;;;;;;;;333.60;2329.60;;;;;;5023764;28;19912;-79
2023/05/11 03:16:33;;;;;;;;;;;333.60;2329.60;;;;;;5017278;28;19909;-75
2023/05/11 03:19:00;;;;;;;;;;;333.60;2329.60;;;;;;5016947;28;19905;-80
2023/05/11 03:21:26;;;;;;;;;;;333.50;2329.60;;;;;;5023217;28;20276;-74
2023/05/11 03:23:51;;;;;;;;;;;333.50;2329.60;;;;;;5022437;28;19906;-74
2023/05/11 03:26:17;;;;;;;;;;;333.50;2329.60;;;;;;5016801;28;19921;-80
2023/05/11 03:28:43;;;;;;;;;;;333.50;2329.60;;;;;;5016744;28;20399;-74
2023/05/11 03:31:09;;;;;;;;;;;333.40;2329.60;;;;;;5016713;28;19905;-74
2023/05/11 03:33:35;;;;;;;;;;;333.40;2329.60;;;;;;5031719;28;20019;-74
2023/05/11 03:36:01;;;;;;;;;;;333.50;2329.60;;;;;;5027559;28;20338;-74
2023/05/11 03:38:27;;;;;;;;;;;333.40;2329.60;;;;;;5016462;28;19972;-79
2023/05/11 03:40:53;;;;;;;;;;;333.40;2329.60;;;;;;5026123;28;19913;-74
2023/05/11 03:43:19;;;;;;;;;;;333.40;2329.60;;;;;;5030009;28;19905;-74
2023/05/11 03:45:46;;;;;;;;;;;333.40;2329.60;;;;;;5023108;28;19920;-79
2023/05/11 03:48:13;;;;;;;;;;;333.50;2329.60;;;;;;5025954;28;20261;-78
2023/05/11 03:50:39;;;;;;;;;;;333.60;2329.60;;;;;;5016389;28;19909;-81
2023/05/11 03:53:05;;;;;;;;;;;333.70;2329.60;;;;;;5027357;28;19913;-74
2023/05/11 03:55:31;;;;;;;;;;;333.70;2329.60;;;;;;5017870;28;19920;-74
2023/05/11 03:57:56;;;;;;;;;;;358.40;2329.60;;;;;;5016403;28;19905;-78
2023/05/11 04:00:22;;;;;;;;;;;358.50;2329.60;;;;;;5016859;28;19909;-74
2023/05/11 04:02:48;;;;;;;;;;;358.50;2329.60;;;;;;5034864;28;19948;-81
2023/05/11 04:05:13;;;;;;;;;;;358.60;2329.60;;;;;;5037452;28;19966;-75
2023/05/11 04:07:39;;;;;;;;;;;358.70;2329.60;;;;;;5025656;28;19916;-74
2023/05/11 04:10:06;;;;;;;;;;;358.70;2329.60;;;;;;5040693;28;19912;-75
2023/05/11 04:12:31;;;;;;;;;;;358.70;2329.60;;;;;;5035751;28;19912;-80
2023/05/11 04:14:57;;;;;;;;;;;358.80;2329.60;;;;;;5035761;28;20315;-80
2023/05/11 04:17:22;;;;;;;;;;;358.80;2329.60;;;;;;5035656;28;19909;-74
2023/05/11 04:19:48;;;;;;;;;;;358.90;2329.60;;;;;;5035518;28;19905;-74
2023/05/11 04:22:13;;;;;;;;;;;358.90;2329.60;;;;;;5035618;28;19908;-75
2023/05/11 04:24:39;;;;;;;;;;;358.90;2329.60;;;;;;5034522;28;19944;-75
2023/05/11 04:27:04;;;;;;;;;;;358.90;2329.60;;;;;;5035368;28;19916;-81
2023/05/11 04:29:30;;;;;;;;;;;359.00;2329.60;;;;;;5035468;28;19912;-78
2023/05/11 04:31:56;;;;;;;;;;;359.00;2329.60;;;;;;5035474;28;19905;-74
2023/05/11 04:34:21;;;;;;;;;;;359.00;2329.60;;;;;;5035315;28;19909;-74
2023/05/11 04:36:47;;;;;;;;;;;359.00;2329.60;;;;;;5035462;28;20297;-74
2023/05/11 04:39:13;;;;;;;;;;;359.10;2329.60;;;;;;5035044;28;19909;-75
2023/05/11 04:41:39;;;;;;;;;;;359.10;2329.60;;;;;;5035368;28;19948;-74
2023/05/11 04:44:04;;;;;;;;;;;359.10;2329.60;;;;;;5035012;28;20369;-74
2023/05/11 04:46:30;;;;;;;;;;;359.20;2329.60;;;;;;5035073;28;19917;-74
2023/05/11 04:48:55;;;;;;;;;;;359.20;2329.60;;;;;;5034917;28;19962;-75
2023/05/11 04:51:21;;;;;;;;;;;359.20;2329.60;;;;;;5035106;28;19912;-75
2023/05/11 04:53:46;;;;;;;;;;;384.00;2329.60;;;;;;5034439;28;19964;-74
2023/05/11 04:56:12;;;;;;;;;;;384.00;2329.60;;;;;;5022193;28;19913;-79
2023/05/11 04:58:37;;;;;;;;;;;384.00;2329.60;;;;;;5034367;28;19905;-74
2023/05/11 05:01:03;;;;;;;;;;;384.10;2329.60;;;;;;5034665;28;19962;-72
2023/05/11 05:03:29;;;;;;;;;;;384.10;2329.60;;;;;;5034981;28;19905;-73
2023/05/11 05:05:54;;;;;;;;;;;384.20;2329.60;;;;;;5034797;28;19913;-73
2023/05/11 05:08:20;;;;;;;;;;;384.30;2329.60;;;;;;5034538;28;20039;-85
2023/05/11 05:10:46;;;;;;;;;;;384.30;2329.60;;;;;;5020975;28;19909;-73
2023/05/11 05:13:11;;;;;;;;;;;384.40;2329.60;;;;;;5034552;28;20365;-74
2023/05/11 05:15:37;;;;;;;;;;;384.40;2329.60;;;;;;5033610;28;19905;-75
2023/05/11 05:18:03;;;;;;;;;;;384.40;2329.60;;;;;;5034740;28;20006;-83
2023/05/11 05:20:28;;;;;;;;;;;384.40;2329.60;;;;;;5025233;28;19912;-74
2023/05/11 05:22:54;;;;;;;;;;;384.40;2329.60;;;;;;5032393;28;19909;-74
2023/05/11 05:25:21;;;;;;;;;;;384.50;2329.60;;;;;;5027075;28;19917;-78
2023/05/11 05:27:46;;;;;;;;;;;384.50;2329.60;;;;;;5027731;28;20316;-74
2023/05/11 05:30:12;;;;;;;;;;;384.50;2329.60;;;;;;5029152;28;19908;-72
2023/05/11 05:32:37;;;;;;;;;;;384.60;2329.60;;;;;;5021603;28;19904;-74
2023/05/11 05:35:03;;;;;;;;;;;384.60;2329.60;;;;;;5028233;28;20254;-72
2023/05/11 05:37:29;;;;;;;;;;;384.70;2329.60;;;;;;5024423;28;19927;-72
2023/05/11 05:39:54;;;;;;;;;;;384.70;2329.60;;;;;;5025601;28;19975;-73
2023/05/11 05:42:21;;;;;;;;;;;384.70;2329.60;;;;;;5031336;28;20257;-76
2023/05/11 05:44:46;;;;;;;;;;;384.70;2329.60;;;;;;5022319;28;19940;-74
2023/05/11 05:47:12;;;;;;;;;;;384.70;2329.60;;;;;;5031469;28;20340;-73
2023/05/11 05:49:37;;;;;;;;;;;384.80;2329.60;;;;;;5026567;28;19905;-76
2023/05/11 05:52:03;;;;;;;;;;;384.80;2329.60;;;;;;5027648;28;19909;-80
2023/05/11 05:54:29;;;;;;;;;;;384.80;2329.60;;;;;;5024668;28;20278;-72
2023/05/11 05:56:54;;;;;;;;;;;384.90;2329.60;;;;;;5015447;28;19912;-76
2023/05/11 05:59:22;;;;;;;;;;;384.80;2329.60;;;;;;5060939;28;19906;-74
2023/05/11 06:01:48;;;;;;;;;;;384.90;2329.60;;;;;;5028703;28;20015;-74
2023/05/11 06:04:13;;;;;;;;;;;384.90;2329.60;;;;;;5022344;28;19948;-74
2023/05/11 06:06:39;;;;;;;;;;;384.90;2329.60;;;;;;5032433;28;20225;-74
2023/05/11 06:09:05;;;;;;;;;;;409.60;2355.20;;;;;;5024562;28;20415;-74
2023/05/11 06:11:30;;;;;;;;;;;409.70;2355.20;;;;;;5026953;28;19968;-74
2023/05/11 06:13:56;;;;;;;;;;;409.70;2278.40;;;;;;5029294;28;19909;-74
2023/05/11 06:16:24;;;;;;;;;;;409.70;2355.20;;;;;;5028521;28;20346;-75
2023/05/11 06:18:49;;;;;;;;;;;409.70;2304.00;;;;;;5032566;28;19909;-75
2023/05/11 06:21:15;;;;;;;;;;;409.70;2252.80;;;;;;5026288;28;19905;-74
2023/05/11 06:23:40;;;;;;;;;;;409.70;2355.20;;;;;;5033079;28;20034;-74
2023/05/11 06:26:06;;;;;;;;;;;409.70;2304.00;;;;;;5031907;28;19964;-74
2023/05/11 06:28:32;;;;;;;;;;;409.70;2304.00;;;;;;5027878;28;19905;-75
2023/05/11 06:30:58;;;;;;;;;;;409.70;2355.20;;;;;;5024969;28;19912;-74
2023/05/11 06:33:24;;;;;;;;;;;409.70;2355.20;;;;;;5026521;28;20369;-73
2023/05/11 06:35:49;;;;;;;;;;;409.70;2355.20;;;;;;5024569;28;19912;-76
2023/05/11 06:38:15;;;;;;;;;;;409.70;2278.40;;;;;;5027612;28;19905;-73
2023/05/11 06:40:40;;;;;;;;;;;409.70;2329.60;;;;;;5025640;28;19909;-73
2023/05/11 06:43:06;;;;;;;;;;;409.80;2355.20;;;;;;5021081;28;20357;-73
2023/05/11 06:45:32;;;;;;;;;;;409.70;2304.00;;;;;;5017525;28;19920;-72
2023/05/11 06:47:58;;;;;;;;;;;409.70;2278.40;;;;;;5030052;28;19905;-72
2023/05/11 06:50:23;;;;;;;;;;;409.70;2304.00;;;;;;5024582;28;19913;-73
2023/05/11 06:52:49;;;;;;;;;;;409.70;2252.80;;;;;;5033740;28;20408;-72
2023/05/11 06:55:14;;;;;;;;;;;409.80;2201.60;;;;;;5028188;28;20308;-72
2023/05/11 06:57:40;;;;;;;;;;;409.80;2201.60;;;;;;5028098;28;19955;-74
2023/05/11 07:00:06;;;;;;;;;;;409.90;2227.20;;;;;;5025775;28;19947;-73
2023/05/11 07:02:32;;;;;;;;;;;410.00;2176.00;;;;;;5026821;28;19909;-73
2023/05/11 07:04:57;;;;;;;;;;;410.00;2124.80;;;;;;5028211;28;19909;-81
2023/05/11 07:07:23;;;;;;;;;;;410.00;2099.20;;;;;;5034211;28;19913;-72
2023/05/11 07:09:48;;;;;;;;;;;410.00;2099.20;;;;;;5030431;28;19909;-73
2023/05/11 07:12:14;;;;;;;;;;;410.10;2124.80;;;;;;5034015;28;20433;-73
2023/05/11 07:14:40;;;;;;;;;;;410.10;2073.60;;;;;;5030697;28;19905;-73
2023/05/11 07:17:05;;;;;;;;;;;410.20;1971.20;;;;;;5035936;28;19905;-72
2023/05/11 07:19:31;;;;;;;;;;;410.20;2048.00;;;;;;5025366;28;20383;-72
2023/05/11 07:21:57;;;;;;;;;;;410.20;1996.80;;;;;;5034368;28;19905;-72
2023/05/11 07:24:22;;;;;;;;;;;410.20;1945.60;;;;;;5026978;28;19947;-72
2023/05/11 07:26:49;;;;;;;;;;;410.30;1920.00;;;;;;5030705;28;19956;-72
2023/05/11 07:29:15;;;;;;;;;;;410.30;1894.40;;;;;;5045205;28;20439;-72
2023/05/11 07:31:41;;;;;;;;;;;410.30;1868.80;;;;;;5030704;28;20027;-73
2023/05/11 07:34:07;;;;;;;;;;;410.40;1868.80;;;;;;5029234;28;19905;-72
2023/05/11 07:36:33;;;;;;;;;;;410.40;1843.20;;;;;;5032238;28;20273;-73
2023/05/11 07:39:00;;;;;;;;;;;410.40;1817.60;;;;;;5029863;28;19912;-73
2023/05/11 07:41:26;;;;;;;;;;;410.40;1792.00;;;;;;5034887;28;20346;-73
2023/05/11 07:43:52;;;;;;;;;;;410.40;1817.60;;;;;;5025645;28;20296;-73
2023/05/11 07:46:17;;;;;;;;;;;410.50;1817.60;;;;;;5035729;28;19983;-74
2023/05/11 07:48:43;;;;;;;;;;;410.50;1792.00;;;;;;5029362;28;20357;-72
2023/05/11 07:51:09;;;;;;;;;;;410.50;1766.40;;;;;;5026595;28;20300;-75
2023/05/11 07:53:35;;;;;;;;;;;410.50;1740.80;;;;;;5026432;28;19913;-76
2023/05/11 07:56:02;;;;;;;;;;;410.50;1740.80;;;;;;5026228;28;19960;-74
2023/05/11 07:58:29;;;;;;;;;;;435.20;1740.80;;;;;;5030152;28;20389;-74
2023/05/11 08:00:55;;;;;;;;;;;435.20;1715.20;;;;;;5028593;28;19912;-74
2023/05/11 08:03:20;;;;;;;;;;;435.30;1740.80;;;;;;5029981;28;19948;-74
2023/05/11 08:05:46;;;;;;;;;;;435.40;1715.20;;;;;;5026913;28;19915;-75
2023/05/11 08:08:12;;;;;;;;;;;435.60;1689.60;;;;;;5025022;28;19959;-75
2023/05/11 08:10:37;;;;;;;;;;;435.90;1664.00;;;;;;5035541;28;19905;-75
2023/05/11 08:13:03;;;;;;;;;;;436.10;1664.00;;;;;;5032475;28;19905;-75
2023/05/11 08:15:28;;;;;;;;;;;436.10;1664.00;;;;;;5034914;28;19909;-75
2023/05/11 08:17:54;;;;;;;;;;;436.10;1612.80;;;;;;5028988;28;20627;-74
2023/05/11 08:20:20;;;;;;;;;;;460.80;1638.40;;;;;;5032482;28;19912;-73
2023/05/11 08:22:45;;;;;;;;;;;460.90;1638.40;;;;;;5032830;28;19916;-73
2023/05/11 08:25:12;;;;;;;;;;;461.00;1664.00;;;;;;5025633;28;19917;-74
2023/05/11 08:27:38;;;;;;;;;;;461.00;1587.20;;;;;;5034501;28;19905;-73
2023/05/11 08:30:04;;;;;;;;;;;461.00;1612.80;;;;;;5030246;28;20284;-73
2023/05/11 08:32:29;;;;;;;;;;;461.10;1612.80;;;;;;5030244;28;19912;-73
2023/05/11 08:34:55;;;;;;;;;;;461.20;1561.60;;;;;;5024827;28;20353;-75
2023/05/11 08:37:21;;;;;;;;;;;461.40;1561.60;;;;;;5029051;28;19905;-74
2023/05/11 08:39:46;;;;;;;;;;;461.50;1536.00;;;;;;5029011;28;19905;-73
2023/05/11 08:42:14;;;;;;;;;;;461.60;1536.00;;;;;;5027443;28;20357;-73
2023/05/11 08:44:41;;;;;;;;;;;461.70;1484.80;;;;;;5024001;28;19906;-73
2023/05/11 08:47:07;;;;;;;;;;;461.60;1510.40;;;;;;5030117;28;20349;-74
2023/05/11 08:49:33;;;;;;;;;;;461.60;1510.40;;;;;;5028797;28;20376;-73
2023/05/11 08:52:02;;;;;;;;;;;461.50;1484.80;;;;;;5032411;28;19905;-78
2023/05/11 08:54:28;;;;;;;;;;;461.40;1484.80;;;;;;5025269;28;19945;-76
2023/05/11 08:56:53;;;;;;;;;;;461.40;1484.80;;;;;;5026347;28;19921;-74
2023/05/11 08:59:19;;;;;;;;;;;461.40;1433.60;;;;;;5031661;28;19921;-75
2023/05/11 09:01:45;;;;;;;;;;;461.50;1459.20;;;;;;5025204;28;20112;-74
2023/05/11 09:04:11;;;;;;;;;;;461.40;1459.20;;;;;;5023159;28;19912;-73
2023/05/11 09:06:37;;;;;;;;;;;486.40;1459.20;;;;;;5029891;28;19912;-73
2023/05/11 09:09:03;;;;;;;;;;;461.70;1408.00;;;;;;5031778;28;20353;-73
2023/05/11 09:11:29;;;;;;;;;;;461.60;1408.00;;;;;;5029292;28;19909;-72
2023/05/11 09:13:55;;;;;;;;;;;461.60;1382.40;;;;;;5026563;28;19916;-73
2023/05/11 09:16:20;;;;;;;;;;;461.60;1382.40;;;;;;5031241;28;20324;-74
2023/05/11 09:18:49;;;;;;;;;;;461.50;1356.80;;;;;;5031041;28;19944;-77
2023/05/11 09:21:15;;;;;;;;;;;461.60;1382.40;;;;;;5029206;28;19938;-74
2023/05/11 09:23:41;;;;;;;;;;;461.50;1382.40;;;;;;5023625;28;20345;-73
2023/05/11 09:26:16;;;;;;;;;;;461.60;1382.40;;;;;;5030595;28;19968;-73
2023/05/11 09:28:48;;;;;;;;;;;461.60;1356.80;;;;;;5027057;28;19967;-73
2023/05/11 09:31:33;;;;;;;;;;;461.70;1356.80;;;;;;5030723;28;19917;-72
2023/05/11 09:34:09;;;;;;;;;;;461.70;1356.80;;;;;;5023199;28;19905;-73
2023/05/11 09:36:34;;;;;;;;;;;461.70;1356.80;;;;;;5029749;28;19916;-72
2023/05/11 09:39:03;;;;;;;;;;;461.60;1356.80;;;;;;5025675;28;19905;-73
2023/05/11 09:41:29;;;;;;;;;;;461.70;1382.40;;;;;;5027123;28;20876;-73
2023/05/11 09:44:03;;;;;;;;;;;486.50;1356.80;;;;;;5022407;28;20007;-74
2023/05/11 09:46:28;;;;;;;;;;;486.40;1356.80;;;;;;5025485;28;19913;-72
2023/05/11 09:48:58;;;;;;;;;;;461.70;1382.40;;;;;;5032646;28;20265;-74
2023/05/11 09:51:29;;;;;;;;;;;486.40;1382.40;;;;;;5032152;28;20316;-72
2023/05/11 09:53:56;;;;;;;;;;;461.70;1382.40;;;;;;5028118;28;19975;-74
2023/05/11 09:56:21;;;;;;;;;;;461.60;1356.80;;;;;;5027631;28;19963;-73
2023/05/11 09:58:47;;;;;;;;;;;461.60;1356.80;;;;;;5023551;28;20324;-73
2023/05/11 10:01:13;;;;;;;;;;;461.60;1382.40;;;;;;5019616;28;20389;-71
2023/05/11 10:03:54;;;;;;;;;;;461.60;1382.40;;;;;;5031967;28;20281;-73
2023/05/11 10:06:20;;;;;;;;;;;461.70;1382.40;;;;;;5024996;28;19913;-73
2023/05/11 10:08:46;;;;;;;;;;;486.50;1382.40;;;;;;5027012;28;19905;-73
2023/05/11 10:11:12;;;;;;;;;;;461.70;1408.00;;;;;;5025440;28;19916;-72
2023/05/11 10:13:38;;;;;;;;;;;461.60;1433.60;;;;;;5022606;28;19909;-71
2023/05/11 10:16:04;;;;;;;;;;;461.60;1459.20;;;;;;5029056;28;19909;-72
2023/05/11 10:18:32;;;;;;;;;;;461.50;1433.60;;;;;;5024404;28;19905;-73
2023/05/11 10:20:58;;;;;;;;;;;461.50;1433.60;;;;;;5031315;28;19905;-73
2023/05/11 10:23:27;;;;;;;;;;;461.50;1433.60;;;;;;5028899;28;19923;-72
2023/05/11 10:25:53;;;;;;;;;;;461.50;1433.60;;;;;;5022496;28;20321;-72
2023/05/11 10:28:20;;;;;;;;;;;461.60;1408.00;;;;;;5029941;28;19905;-72
2023/05/11 10:30:46;;;;;;;;;;;461.70;1408.00;;;;;;5027399;28;19905;-73
2023/05/11 10:33:12;;;;;;;;;;;486.40;1433.60;;;;;;5028277;28;19975;-71
2023/05/11 10:35:38;;;;;;;;;;;461.70;1408.00;;;;;;5023953;28;19905;-71
2023/05/11 10:38:05;;;;;;;;;;;486.40;1433.60;;;;;;5025192;28;19905;-74
2023/05/11 10:40:35;;;;;;;;;;;486.40;1433.60;;;;;;5023103;28;19905;-72
2023/05/11 10:43:17;;;;;;;;;;;486.40;1459.20;;;;;;5022691;28;19996;-72
2023/05/11 10:46:02;;;;;;;;;;;486.40;1408.00;;;;;;5022918;28;19917;-72
2023/05/11 10:48:28;;;;;;;;;;;486.50;1433.60;;;;;;5026433;28;20377;-72
2023/05/11 10:50:56;;;;;;;;;;;486.60;1433.60;;;;;;5023929;28;20030;-72
2023/05/11 10:53:39;;;;;;;;;;;486.70;1433.60;;;;;;5023501;28;19962;-71
2023/05/11 10:56:29;;;;;;;;;;;486.80;1433.60;;;;;;5029708;28;19913;-72
2023/05/11 10:59:07;;;;;;;;;;;486.80;1433.60;;;;;;5031337;28;19955;-71
2023/05/11 11:01:38;;;;;;;;;;;486.80;1459.20;;;;;;5025742;28;20357;-72
2023/05/11 11:04:05;;;;;;;;;;;486.90;1408.00;;;;;;5027112;28;19905;-73
2023/05/11 11:06:31;;;;;;;;;;;486.80;1382.40;;;;;;5028032;28;19928;-72
2023/05/11 11:08:58;;;;;;;;;;;487.00;1408.00;;;;;;5021228;28;20405;-71
2023/05/11 11:11:30;;;;;;;;;;;487.10;1408.00;;;;;;5025700;28;20368;-72
2023/05/11 11:13:57;;;;;;;;;;;487.10;1382.40;;;;;;5028241;28;19905;-71
2023/05/11 11:16:24;;;;;;;;;;;512.00;1382.40;;;;;;5027306;28;20315;-71
2023/05/11 11:18:50;;;;;;;;;;;512.00;1356.80;;;;;;5027225;28;19906;-71
2023/05/11 11:21:36;;;;;;;;;;;512.00;1356.80;;;;;;5023671;28;20036;-71
2023/05/11 11:24:02;;;;;;;;;;;487.30;1356.80;;;;;;5029043;28;19996;-72
2023/05/11 11:27:00;;;;;;;;;;;487.20;1356.80;;;;;;5025464;28;20021;-76
2023/05/11 11:29:27;;;;;;;;;;;487.30;1356.80;;;;;;5005240;28;19909;-71
2023/05/11 11:31:52;;;;;;;;;;;512.00;1382.40;;;;;;5040428;28;19912;-73
2023/05/11 11:34:24;;;;;;;;;;;512.10;1382.40;;;;;;5048310;28;19908;-72
2023/05/11 11:37:02;;;;;;;;;;;512.20;1382.40;;;;;;5039551;28;19905;-71
2023/05/11 11:39:43;;;;;;;;;;;512.10;1356.80;;;;;;5038195;28;19960;-72
2023/05/11 11:42:12;;;;;;;;;;;512.00;1356.80;;;;;;5034647;28;19905;-73
2023/05/11 11:44:38;;;;;;;;;;;512.00;1356.80;;;;;;5037436;28;19905;-72
2023/05/11 11:47:17;;;;;;;;;;;512.10;1356.80;;;;;;5041468;28;20297;-71
2023/05/11 11:49:44;;;;;;;;;;;512.60;1356.80;;;;;;5038516;28;20364;-72
2023/05/11 11:52:11;;;;;;;;;;;512.20;1356.80;;;;;;5044545;28;19909;-71
2023/05/11 11:54:41;;;;;;;;;;;512.10;1356.80;;;;;;5041726;28;20042;-71
2023/05/11 11:57:48;;;;;;;;;;;487.30;1382.40;;;;;;5034347;28;19905;-72
2023/05/11 12:00:18;;;;;;;;;;;487.10;1408.00;;;;;;4945232;29;19958;-72
2023/05/11 12:02:44;;;;;;;;;;;487.00;1459.20;;;;;;4950423;29;19954;-72
2023/05/11 12:05:13;;;;;;;;;;;486.70;1484.80;;;;;;4954528;28;19946;-72
2023/05/11 12:07:42;;;;;;;;;;;486.60;1510.40;;;;;;4954983;29;19942;-72
2023/05/11 12:10:10;;;;;;;;;;;486.60;1510.40;;;;;;4955046;28;19907;-72
2023/05/11 12:12:37;;;;;;;;;;;486.60;1510.40;;;;;;4955206;29;19907;-72
2023/05/11 12:15:02;;;;;;;;;;;486.70;1484.80;;;;;;4946969;29;19906;-72
2023/05/11 12:17:28;;;;;;;;;;;486.70;1484.80;;;;;;4954792;28;19913;-72
2023/05/11 12:20:10;;;;;;;;;;;486.70;1484.80;;;;;;4954761;29;19910;-71
2023/05/11 12:22:35;;;;;;;;;;;486.70;1484.80;;;;;;4954454;29;19918;-72
2023/05/11 12:25:04;;;;;;;;;;;486.80;1484.80;;;;;;4954596;29;19910;-72
2023/05/11 12:27:29;;;;;;;;;;;486.80;1484.80;;;;;;4954672;28;20371;-72
2023/05/11 12:29:56;;;;;;;;;;;486.70;1459.20;;;;;;4961601;28;19964;-77
2023/05/11 12:32:28;;;;;;;;;;;486.70;1484.80;;;;;;5032251;28;19911;-73
2023/05/11 12:34:58;;;;;;;;;;;486.70;1484.80;;;;;;5023548;28;20003;-72
2023/05/11 12:37:24;;;;;;;;;;;486.70;1536.00;;;;;;5031670;28;19905;-72
2023/05/11 12:39:53;;;;;;;;;;;486.50;1561.60;;;;;;5028739;28;19967;-72
2023/05/11 12:42:19;;;;;;;;;;;486.40;1536.00;;;;;;5032852;28;19963;-78
2023/05/11 12:44:45;;;;;;;;;;;461.70;1510.40;;;;;;5022534;28;19917;-73
2023/05/11 12:47:10;;;;;;;;;;;461.70;1510.40;;;;;;5029235;28;19919;-73
2023/05/11 12:49:36;;;;;;;;;;;461.70;1484.80;;;;;;5027123;28;20320;-71
2023/05/11 12:52:08;;;;;;;;;;;486.40;1459.20;;;;;;5028293;28;19999;-71
2023/05/11 12:54:36;;;;;;;;;;;461.70;1459.20;;;;;;5029693;28;19999;-73
2023/05/11 12:57:02;;;;;;;;;;;486.50;1484.80;;;;;;5020944;28;19991;-72
2023/05/11 12:59:28;;;;;;;;;;;486.40;1459.20;;;;;;5030851;28;20329;-75
2023/05/11 13:01:53;;;;;;;;;;;461.70;1484.80;;;;;;5028453;28;20000;-72
2023/05/11 13:04:29;;;;;;;;;;;461.70;1484.80;;;;;;5025373;28;19941;-73
2023/05/11 13:06:55;;;;;;;;;;;461.50;1484.80;;;;;;5033029;28;20283;-72
2023/05/11 13:09:21;;;;;;;;;;;461.40;1484.80;;;;;;5025142;28;19909;-73
2023/05/11 13:11:46;;;;;;;;;;;461.50;1484.80;;;;;;5028625;28;19905;-72
2023/05/11 13:14:16;;;;;;;;;;;461.40;1510.40;;;;;;5028584;28;19912;-72
2023/05/11 13:16:51;;;;;;;;;;;461.40;1510.40;;;;;;5026236;28;19905;-76
2023/05/11 13:19:25;;;;;;;;;;;461.30;1510.40;;;;;;5029804;28;19905;-72
2023/05/11 13:21:51;;;;;;;;;;;461.20;1510.40;;;;;;5024379;28;20024;-72
2023/05/11 13:24:20;;;;;;;;;;;461.20;1510.40;;;;;;5030433;28;20006;-72
2023/05/11 13:26:45;;;;;;;;;;;461.00;1484.80;;;;;;5028245;28;19920;-71
2023/05/11 13:29:11;;;;;;;;;;;461.00;1510.40;;;;;;5027845;28;19905;-72
2023/05/11 13:31:49;;;;;;;;;;;460.90;1510.40;;;;;;5032355;28;19944;-72
2023/05/11 13:34:15;;;;;;;;;;;460.90;1510.40;;;;;;5028809;28;19909;-72
2023/05/11 13:36:41;;;;;;;;;;;460.80;1510.40;;;;;;5026941;28;20366;-72
2023/05/11 13:39:07;;;;;;;;;;;460.80;1536.00;;;;;;5030616;28;19911;-72
2023/05/11 13:41:32;;;;;;;;;;;436.10;1484.80;;;;;;5023866;28;19988;-72
2023/05/11 13:43:58;;;;;;;;;;;436.10;1510.40;;;;;;5024152;28;19940;-79